Airport View

Enter AWOS ICAO identifier for current METAR.

ex. KFNL

KLLJ 120555Z AUTO 01003KT 10SM OVC060 M02/M07 A3000 RMK AO2 SLP189 T10221067 11017 21033 56011

12 Dec 2019 06:36

Frequency: 119.275

Phone: 208-879-5121

Other Area AWOS: KSNT - KSMN - KSUN - KMYL

TAF AMD KSMN 120611Z 1206/1306 00000KT 6SM -SNRA BR BKN020 OVC050 FM121300 28005KT 4SM -SN OVC050 FM121900 30006KT P6SM BKN070 FM130400 22005KT P6SM -SN OVC050